Time,TemperatureF,DewpointF,PressureIn,WindDirection,WindDirectionDegrees,WindSpeedMPH,WindSpeedGustMPH,Humidity,HourlyPrecipIn,Conditions,Clouds,dailyrainin,SoftwareType,DateUTC
2013-03-15 00:00:00,37.6,34.4,30.05,SSW,206,0.0,6.0,88,0.00,,,0.00,Wunderground v.1.15,2013-03-15 05:00:00,
2013-03-15 00:05:00,37.2,33.4,30.05,SSW,206,0.0,6.0,86,0.00,,,0.00,Wunderground v.1.15,2013-03-15 05:05:00,
2013-03-15 00:12:00,36.4,32.3,30.04,SSW,206,0.0,6.0,85,0.00,,,0.00,Wunderground v.1.15,2013-03-15 05:12:00,
2013-03-15 00:17:00,36.4,33.2,30.04,SSW,206,0.0,6.0,88,0.00,,,0.00,Wunderground v.1.15,2013-03-15 05:17:00,
2013-03-15 00:24:00,36.4,33.2,30.03,SSW,206,0.0,6.0,88,0.00,,,0.00,Wunderground v.1.15,2013-03-15 05:24:00,
2013-03-15 00:30:00,36.2,33.0,30.04,SSW,206,0.0,6.0,88,0.00,,,0.00,Wunderground v.1.15,2013-03-15 05:30:00,
2013-03-15 00:36:00,35.8,32.3,30.03,SSW,206,1.0,6.0,87,0.00,,,0.00,Wunderground v.1.15,2013-03-15 05:36:00,
2013-03-15 00:42:00,35.0,31.2,30.03,SSW,206,0.0,6.0,86,0.00,,,0.00,Wunderground v.1.15,2013-03-15 05:42:00,
2013-03-15 00:47:00,34.6,31.1,30.03,SSW,206,0.0,6.0,87,0.00,,,0.00,Wunderground v.1.15,2013-03-15 05:47:00,
2013-03-15 00:53:00,34.3,30.8,30.03,SSW,206,0.0,6.0,87,0.00,,,0.00,Wunderground v.1.15,2013-03-15 05:53:00,
2013-03-15 00:58:00,34.1,30.9,30.03,SSW,206,0.0,6.0,88,0.00,,,0.00,Wunderground v.1.15,2013-03-15 05:58:00,
2013-03-15 01:05:00,34.3,31.4,30.03,SSW,206,0.0,6.0,89,0.00,,,0.00,Wunderground v.1.15,2013-03-15 06:05:00,
2013-03-15 01:10:00,34.0,31.0,30.03,SSW,206,0.0,0.0,89,0.00,,,0.00,weatherlink.com 1.10,2013-03-15 06:10:00,
2013-03-15 01:16:00,33.8,30.9,30.02,SSW,206,0.0,6.0,89,0.00,,,0.00,Wunderground v.1.15,2013-03-15 06:16:00,
2013-03-15 01:21:00,33.7,30.8,30.02,SSW,206,0.0,6.0,89,0.00,,,0.00,Wunderground v.1.15,2013-03-15 06:21:00,
2013-03-15 01:30:00,33.5,30.6,30.01,SSW,206,0.0,6.0,89,0.00,,,0.00,Wunderground v.1.15,2013-03-15 06:30:00,
2013-03-15 01:36:00,33.2,30.3,30.00,SSW,206,0.0,6.0,89,0.00,,,0.00,Wunderground v.1.15,2013-03-15 06:36:00,
2013-03-15 01:41:00,32.9,30.0,30.00,SSW,206,0.0,6.0,89,0.00,,,0.00,Wunderground v.1.15,2013-03-15 06:41:00,
2013-03-15 01:47:00,32.8,29.9,30.00,SSW,206,0.0,6.0,89,0.00,,,0.00,Wunderground v.1.15,2013-03-15 06:47:00,
2013-03-15 01:52:00,32.9,30.3,30.00,SSW,206,1.0,6.0,90,0.00,,,0.00,Wunderground v.1.15,2013-03-15 06:52:00,
2013-03-15 01:58:00,32.6,30.0,30.00,SSW,206,0.0,3.0,90,0.00,,,0.00,weatherlink.com 1.10,2013-03-15 06:58:00,
2013-03-15 02:05:00,32.5,29.9,30.00,SSW,206,0.0,6.0,90,0.00,,,0.00,Wunderground v.1.15,2013-03-15 07:05:00,
2013-03-15 02:10:00,32.5,29.9,30.00,SSW,206,0.0,6.0,90,0.00,,,0.00,Wunderground v.1.15,2013-03-15 07:10:00,
2013-03-15 02:16:00,32.5,30.2,30.00,SSW,206,0.0,6.0,91,0.00,,,0.00,Wunderground v.1.15,2013-03-15 07:16:00,
2013-03-15 02:21:00,32.6,30.3,30.00,SSW,206,0.0,6.0,91,0.00,,,0.00,Wunderground v.1.15,2013-03-15 07:21:00,
2013-03-15 02:27:00,33.0,30.9,29.99,SSW,206,0.0,6.0,92,0.00,,,0.00,Wunderground v.1.15,2013-03-15 07:27:00,
2013-03-15 02:33:00,33.3,31.2,29.99,SSW,206,0.0,6.0,92,0.00,,,0.00,Wunderground v.1.15,2013-03-15 07:33:00,
2013-03-15 02:38:00,33.2,30.9,29.99,SSW,206,0.0,6.0,91,0.00,,,0.00,Wunderground v.1.15,2013-03-15 07:38:00,
2013-03-15 02:44:00,32.6,30.0,29.98,SSW,206,0.0,6.0,90,0.00,,,0.00,Wunderground v.1.15,2013-03-15 07:44:00,
2013-03-15 02:50:00,32.3,29.7,29.98,SSW,206,0.0,6.0,90,0.00,,,0.00,Wunderground v.1.15,2013-03-15 07:50:00,
2013-03-15 02:56:00,32.4,30.1,29.97,SSW,206,0.0,6.0,91,0.00,,,0.00,Wunderground v.1.15,2013-03-15 07:56:00,
2013-03-15 03:01:00,33.5,31.4,29.97,SSW,206,0.0,6.0,92,0.00,,,0.00,Wunderground v.1.15,2013-03-15 08:01:00,
2013-03-15 03:07:00,33.0,30.7,29.96,SSW,206,0.0,6.0,91,0.00,,,0.00,Wunderground v.1.15,2013-03-15 08:07:00,
2013-03-15 03:12:00,32.6,30.3,29.96,SSW,206,0.0,6.0,91,0.00,,,0.00,Wunderground v.1.15,2013-03-15 08:12:00,
2013-03-15 03:18:00,32.5,30.2,29.96,SSW,206,0.0,6.0,91,0.00,,,0.00,Wunderground v.1.15,2013-03-15 08:18:00,
2013-03-15 03:24:00,32.4,30.0,29.96,SSW,206,0.0,2.0,91,0.00,,,0.00,weatherlink.com 1.10,2013-03-15 08:24:00,
2013-03-15 03:29:00,32.6,30.3,29.95,SSW,206,0.0,6.0,91,0.00,,,0.00,Wunderground v.1.15,2013-03-15 08:29:00,
2013-03-15 03:35:00,32.9,30.8,29.94,SSW,206,0.0,6.0,92,0.00,,,0.00,Wunderground v.1.15,2013-03-15 08:35:00,
2013-03-15 03:40:00,34.7,33.0,29.94,South,183,1.0,5.0,93,0.00,,,0.00,weatherlink.com 1.10,2013-03-15 08:40:00,
2013-03-15 03:45:00,36.6,35.0,29.94,SSW,202,2.0,6.0,94,0.00,,,0.00,Wunderground v.1.15,2013-03-15 08:45:00,
2013-03-15 03:51:00,37.0,35.2,29.94,SW,214,2.0,6.0,93,0.00,,,0.00,Wunderground v.1.15,2013-03-15 08:51:00,
2013-03-15 03:58:00,38.4,36.8,29.94,South,183,2.0,6.0,94,0.00,,,0.00,Wunderground v.1.15,2013-03-15 08:58:00,
2013-03-15 04:04:00,39.1,37.2,29.93,SSW,197,2.0,6.0,93,0.00,,,0.00,Wunderground v.1.15,2013-03-15 09:04:00,
2013-03-15 04:09:00,39.5,37.4,29.93,South,183,3.0,6.0,92,0.00,,,0.00,Wunderground v.1.15,2013-03-15 09:09:00,
2013-03-15 04:15:00,40.0,37.3,29.93,SSW,196,3.0,6.0,90,0.00,,,0.00,Wunderground v.1.15,2013-03-15 09:15:00,
2013-03-15 04:21:00,40.1,37.1,29.92,South,183,2.0,6.0,89,0.00,,,0.00,Wunderground v.1.15,2013-03-15 09:21:00,
2013-03-15 04:29:00,40.3,37.0,29.92,South,178,2.0,6.0,88,0.00,,,0.00,Wunderground v.1.15,2013-03-15 09:29:00,
2013-03-15 04:34:00,40.6,37.0,29.91,South,183,2.0,6.0,87,0.00,,,0.00,Wunderground v.1.15,2013-03-15 09:34:00,
2013-03-15 04:40:00,40.9,37.0,29.91,SSW,207,0.0,5.0,87,0.00,,,0.00,weatherlink.com 1.10,2013-03-15 09:40:00,
2013-03-15 04:47:00,40.8,36.6,29.91,South,183,1.0,6.0,85,0.00,,,0.00,Wunderground v.1.15,2013-03-15 09:47:00,
2013-03-15 04:57:00,40.9,36.7,29.91,South,173,2.0,6.0,85,0.00,,,0.00,Wunderground v.1.15,2013-03-15 09:57:00,
2013-03-15 05:03:00,40.9,36.7,29.90,South,183,2.0,6.0,85,0.00,,,0.00,Wunderground v.1.15,2013-03-15 10:03:00,
2013-03-15 05:09:00,40.8,37.0,29.90,South,178,0.0,6.0,85,0.00,,,0.00,weatherlink.com 1.10,2013-03-15 10:09:00,
2013-03-15 05:14:00,40.6,36.4,29.89,South,183,1.0,6.0,85,0.00,,,0.00,Wunderground v.1.15,2013-03-15 10:14:00,
2013-03-15 05:22:00,40.4,36.2,29.89,South,189,2.0,6.0,85,0.00,,,0.00,Wunderground v.1.15,2013-03-15 10:22:00,
2013-03-15 05:29:00,40.2,36.1,29.89,South,189,2.0,6.0,85,0.00,,,0.00,Wunderground v.1.15,2013-03-15 10:29:00,
2013-03-15 05:36:00,40.2,36.1,29.89,South,183,2.0,6.0,85,0.00,,,0.00,Wunderground v.1.15,2013-03-15 10:36:00,
2013-03-15 05:44:00,40.1,36.0,29.89,South,188,2.0,6.0,85,0.00,,,0.00,Wunderground v.1.15,2013-03-15 10:44:00,
2013-03-15 05:50:00,40.1,36.0,29.88,South,188,1.0,6.0,85,0.00,,,0.00,Wunderground v.1.15,2013-03-15 10:50:00,
2013-03-15 05:57:00,40.1,36.0,29.88,South,187,1.0,6.0,85,0.00,,,0.00,Wunderground v.1.15,2013-03-15 10:57:00,
2013-03-15 06:04:00,40.0,35.9,29.87,South,187,1.0,6.0,85,0.00,,,0.00,Wunderground v.1.15,2013-03-15 11:04:00,
2013-03-15 06:10:00,40.0,36.0,29.87,South,187,0.0,5.0,85,0.00,,,0.00,weatherlink.com 1.10,2013-03-15 11:10:00,
2013-03-15 06:16:00,40.0,35.9,29.87,South,187,1.0,6.0,85,0.00,,,0.00,Wunderground v.1.15,2013-03-15 11:16:00,
2013-03-15 06:22:00,39.9,35.5,29.87,South,188,1.0,6.0,84,0.00,,,0.00,Wunderground v.1.15,2013-03-15 11:22:00,
2013-03-15 06:28:00,39.7,35.3,29.86,South,188,1.0,6.0,84,0.00,,,0.00,Wunderground v.1.15,2013-03-15 11:28:00,
2013-03-15 06:33:00,39.6,35.5,29.86,South,188,0.0,6.0,85,0.00,,,0.00,Wunderground v.1.15,2013-03-15 11:33:00,
2013-03-15 06:39:00,39.6,35.5,29.86,South,188,0.0,6.0,85,0.00,,,0.00,Wunderground v.1.15,2013-03-15 11:39:00,
2013-03-15 06:50:00,39.6,35.5,29.85,South,188,0.0,6.0,85,0.00,,,0.00,Wunderground v.1.15,2013-03-15 11:50:00,
2013-03-15 06:59:00,39.6,35.5,29.85,South,188,0.0,6.0,85,0.00,,,0.00,Wunderground v.1.15,2013-03-15 11:59:00,
2013-03-15 07:05:00,39.3,34.9,29.85,South,188,0.0,6.0,84,0.00,,,0.00,Wunderground v.1.15,2013-03-15 12:05:00,
2013-03-15 07:11:00,38.9,34.5,29.85,South,188,0.0,6.0,84,0.00,,,0.00,Wunderground v.1.15,2013-03-15 12:11:00,
2013-03-15 07:17:00,38.4,34.0,29.85,South,188,0.0,6.0,84,0.00,,,0.00,Wunderground v.1.15,2013-03-15 12:17:00,
2013-03-15 07:22:00,38.1,34.0,29.84,South,188,0.0,6.0,85,0.00,,,0.00,Wunderground v.1.15,2013-03-15 12:22:00,
2013-03-15 07:28:00,38.1,34.0,29.84,South,188,2.0,4.0,86,0.00,,,0.00,weatherlink.com 1.10,2013-03-15 12:28:00,
2013-03-15 07:33:00,38.1,34.3,29.84,South,188,1.0,6.0,86,0.00,,,0.00,Wunderground v.1.15,2013-03-15 12:33:00,
2013-03-15 07:39:00,37.9,34.1,29.84,South,188,0.0,6.0,86,0.00,,,0.00,Wunderground v.1.15,2013-03-15 12:39:00,
2013-03-15 07:44:00,37.8,34.0,29.84,South,188,0.0,6.0,86,0.00,,,0.00,Wunderground v.1.15,2013-03-15 12:44:00,
2013-03-15 07:49:00,37.3,33.2,29.84,South,188,0.0,6.0,85,0.00,,,0.00,Wunderground v.1.15,2013-03-15 12:49:00,
2013-03-15 07:55:00,36.9,32.8,29.84,South,188,0.0,6.0,85,0.00,,,0.00,Wunderground v.1.15,2013-03-15 12:55:00,
2013-03-15 08:00:00,36.6,32.5,29.84,South,188,0.0,6.0,85,0.00,,,0.00,Wunderground v.1.15,2013-03-15 13:00:00,
2013-03-15 08:05:00,36.3,32.5,29.83,South,188,0.0,6.0,86,0.00,,,0.00,Wunderground v.1.15,2013-03-15 13:05:00,
2013-03-15 08:13:00,36.0,32.5,29.83,South,188,0.0,6.0,87,0.00,,,0.00,Wunderground v.1.15,2013-03-15 13:13:00,
2013-03-15 08:20:00,35.9,32.4,29.83,South,188,0.0,6.0,87,0.00,,,0.00,Wunderground v.1.15,2013-03-15 13:20:00,
2013-03-15 08:26:00,35.9,32.7,29.82,South,188,0.0,6.0,88,0.00,,,0.00,Wunderground v.1.15,2013-03-15 13:26:00,
2013-03-15 08:31:00,36.1,33.2,29.83,South,188,0.0,6.0,89,0.00,,,0.00,Wunderground v.1.15,2013-03-15 13:31:00,
2013-03-15 08:37:00,36.5,33.6,29.83,South,188,0.0,6.0,89,0.00,,,0.00,Wunderground v.1.15,2013-03-15 13:37:00,
2013-03-15 08:42:00,36.7,34.0,29.82,South,188,0.0,6.0,90,0.00,,,0.00,Wunderground v.1.15,2013-03-15 13:42:00,
2013-03-15 08:48:00,37.0,34.3,29.82,South,188,0.0,6.0,90,0.00,,,0.00,Wunderground v.1.15,2013-03-15 13:48:00,
2013-03-15 08:54:00,37.4,34.7,29.81,South,188,0.0,6.0,90,0.00,,,0.00,Wunderground v.1.15,2013-03-15 13:54:00,
2013-03-15 08:59:00,37.9,35.5,29.81,South,188,0.0,6.0,91,0.00,,,0.00,Wunderground v.1.15,2013-03-15 13:59:00,
2013-03-15 09:04:00,38.7,36.0,29.80,South,190,1.0,6.0,90,0.00,,,0.00,Wunderground v.1.15,2013-03-15 14:04:00,
2013-03-15 09:10:00,39.5,36.5,29.80,South,191,1.0,1.0,89,0.00,,,0.00,Wunderground v.1.15,2013-03-15 14:10:00,
2013-03-15 09:15:00,40.2,36.9,29.80,South,191,0.0,6.0,88,0.00,,,0.00,Wunderground v.1.15,2013-03-15 14:15:00,
2013-03-15 09:20:00,40.7,37.4,29.79,South,191,0.0,6.0,88,0.00,,,0.00,Wunderground v.1.15,2013-03-15 14:20:00,
2013-03-15 09:26:00,41.6,37.7,29.79,South,190,1.0,6.0,86,0.00,,,0.00,Wunderground v.1.15,2013-03-15 14:26:00,
2013-03-15 09:32:00,42.7,38.5,29.78,South,191,1.0,6.0,85,0.00,,,0.00,Wunderground v.1.15,2013-03-15 14:32:00,
2013-03-15 09:39:00,44.4,39.2,29.77,SSW,201,2.0,6.0,82,0.00,,,0.00,Wunderground v.1.15,2013-03-15 14:39:00,
2013-03-15 09:44:00,45.8,39.7,29.77,SSW,209,4.0,6.0,79,0.00,,,0.00,Wunderground v.1.15,2013-03-15 14:44:00,
2013-03-15 09:49:00,47.1,40.3,29.77,SSW,207,4.0,6.0,77,0.00,,,0.00,Wunderground v.1.15,2013-03-15 14:49:00,
2013-03-15 09:55:00,48.1,40.5,29.77,SW,219,4.0,7.0,75,0.00,,,0.00,Wunderground v.1.15,2013-03-15 14:55:00,
2013-03-15 10:01:00,49.1,41.2,29.76,SW,218,4.0,6.0,74,0.00,,,0.00,Wunderground v.1.15,2013-03-15 15:01:00,
2013-03-15 10:06:00,50.1,41.8,29.77,SW,227,4.0,10.0,73,0.00,,,0.00,Wunderground v.1.15,2013-03-15 15:06:00,
2013-03-15 10:12:00,51.5,41.7,29.76,SW,223,6.0,9.0,69,0.00,,,0.00,Wunderground v.1.15,2013-03-15 15:12:00,
2013-03-15 10:19:00,52.5,41.9,29.77,WSW,239,8.0,12.0,67,0.00,,,0.00,Wunderground v.1.15,2013-03-15 15:19:00,
2013-03-15 10:25:00,53.2,42.1,29.77,WSW,247,8.0,10.0,66,0.00,,,0.00,Wunderground v.1.15,2013-03-15 15:25:00,
2013-03-15 10:34:00,54.0,42.1,29.77,SW,236,7.0,10.0,64,0.00,,,0.00,Wunderground v.1.15,2013-03-15 15:34:00,
2013-03-15 10:41:00,54.2,42.7,29.77,WSW,250,7.0,7.0,65,0.00,,,0.00,Wunderground v.1.15,2013-03-15 15:41:00,
2013-03-15 10:46:00,54.6,43.1,29.76,West,261,6.0,9.0,65,0.00,,,0.00,Wunderground v.1.15,2013-03-15 15:46:00,
2013-03-15 10:51:00,55.0,43.4,29.76,WSW,239,6.0,8.0,65,0.00,,,0.00,Wunderground v.1.15,2013-03-15 15:51:00,
2013-03-15 10:57:00,56.1,43.7,29.77,WNW,287,7.0,11.0,63,0.00,,,0.00,Wunderground v.1.15,2013-03-15 15:57:00,
2013-03-15 11:03:00,57.8,43.1,29.77,West,274,6.0,6.0,58,0.00,,,0.00,Wunderground v.1.15,2013-03-15 16:03:00,
2013-03-15 11:08:00,58.0,41.9,29.76,NW,311,5.0,6.0,55,0.00,,,0.00,Wunderground v.1.15,2013-03-15 16:08:00,
2013-03-15 11:14:00,58.0,42.4,29.76,WSW,254,4.0,6.0,56,0.00,,,0.00,Wunderground v.1.15,2013-03-15 16:14:00,
2013-03-15 11:20:00,58.3,42.2,29.76,WNW,287,3.0,3.0,55,0.00,,,0.00,Wunderground v.1.15,2013-03-15 16:20:00,
2013-03-15 11:25:00,58.2,42.1,29.76,WNW,293,4.0,11.0,55,0.00,,,0.00,Wunderground v.1.15,2013-03-15 16:25:00,
2013-03-15 11:31:00,58.2,41.0,29.76,WNW,297,4.0,10.0,53,0.00,,,0.00,weatherlink.com 1.10,2013-03-15 16:31:00,
2013-03-15 11:36:00,58.5,41.9,29.76,West,275,4.0,9.0,54,0.00,,,0.00,Wunderground v.1.15,2013-03-15 16:36:00,
2013-03-15 11:42:00,58.9,41.8,29.76,WNW,282,4.0,6.0,53,0.00,,,0.00,Wunderground v.1.15,2013-03-15 16:42:00,
2013-03-15 11:47:00,58.8,41.2,29.76,NW,305,3.0,6.0,52,0.00,,,0.00,Wunderground v.1.15,2013-03-15 16:47:00,
2013-03-15 11:53:00,58.7,42.6,29.76,WNW,282,3.0,6.0,55,0.00,,,0.00,Wunderground v.1.15,2013-03-15 16:53:00,
2013-03-15 12:00:00,58.9,41.3,29.75,NW,315,2.0,6.0,52,0.00,,,0.00,Wunderground v.1.15,2013-03-15 17:00:00,
2013-03-15 12:05:00,58.8,41.2,29.75,NW,318,3.0,6.0,52,0.00,,,0.00,Wunderground v.1.15,2013-03-15 17:05:00,
2013-03-15 12:11:00,59.1,41.5,29.75,WNW,297,3.0,6.0,52,0.00,,,0.00,Wunderground v.1.15,2013-03-15 17:11:00,
2013-03-15 12:17:00,59.4,41.3,29.75,West,274,3.0,6.0,51,0.00,,,0.00,Wunderground v.1.15,2013-03-15 17:17:00,
2013-03-15 12:22:00,59.7,40.5,29.75,WNW,300,4.0,8.0,49,0.00,,,0.00,Wunderground v.1.15,2013-03-15 17:22:00,
2013-03-15 12:28:00,59.5,41.3,29.76,NW,311,4.0,9.0,51,0.00,,,0.00,Wunderground v.1.15,2013-03-15 17:28:00,
2013-03-15 12:33:00,59.8,41.6,29.75,NNE,13,3.0,6.0,51,0.00,,,0.00,Wunderground v.1.15,2013-03-15 17:33:00,
2013-03-15 12:39:00,59.7,41.5,29.75,NNW,330,3.0,7.0,51,0.00,,,0.00,Wunderground v.1.15,2013-03-15 17:39:00,
2013-03-15 12:45:00,59.7,41.5,29.75,NNW,335,4.0,6.0,51,0.00,,,0.00,Wunderground v.1.15,2013-03-15 17:45:00,
2013-03-15 12:50:00,59.5,41.3,29.75,NNW,345,4.0,7.0,51,0.00,,,0.00,Wunderground v.1.15,2013-03-15 17:50:00,
2013-03-15 12:56:00,59.6,41.9,29.75,NNW,337,4.0,7.0,52,0.00,,,0.00,Wunderground v.1.15,2013-03-15 17:56:00,
2013-03-15 13:02:00,59.5,41.3,29.75,NNW,346,3.0,6.0,51,0.00,,,0.00,Wunderground v.1.15,2013-03-15 18:02:00,
2013-03-15 13:07:00,59.5,42.3,29.75,West,263,3.0,6.0,53,0.00,,,0.00,Wunderground v.1.15,2013-03-15 18:07:00,
2013-03-15 13:12:00,59.5,41.9,29.75,NW,310,3.0,6.0,52,0.00,,,0.00,Wunderground v.1.15,2013-03-15 18:12:00,
2013-03-15 13:19:00,59.6,41.9,29.75,NW,308,2.0,6.0,52,0.00,,,0.00,Wunderground v.1.15,2013-03-15 18:19:00,
2013-03-15 13:25:00,59.9,41.7,29.75,NNW,339,2.0,6.0,51,0.00,,,0.00,Wunderground v.1.15,2013-03-15 18:25:00,
2013-03-15 13:32:00,59.8,42.1,29.75,NNW,333,2.0,6.0,52,0.00,,,0.00,Wunderground v.1.15,2013-03-15 18:32:00,
2013-03-15 13:38:00,60.1,42.4,29.75,WNW,301,2.0,6.0,52,0.00,,,0.00,Wunderground v.1.15,2013-03-15 18:38:00,
2013-03-15 13:44:00,60.1,42.4,29.74,NNE,13,2.0,7.0,52,0.00,,,0.00,Wunderground v.1.15,2013-03-15 18:44:00,
2013-03-15 13:49:00,60.2,42.0,29.74,NNW,345,2.0,7.0,51,0.00,,,0.00,Wunderground v.1.15,2013-03-15 18:49:00,
2013-03-15 13:54:00,60.1,42.4,29.74,NW,312,3.0,6.0,52,0.00,,,0.00,Wunderground v.1.15,2013-03-15 18:54:00,
2013-03-15 14:01:00,59.8,42.0,29.74,North,4,2.0,6.0,53,0.00,,,0.00,weatherlink.com 1.10,2013-03-15 19:01:00,
2013-03-15 14:07:00,59.7,42.5,29.73,NNW,344,1.0,6.0,53,0.00,,,0.00,Wunderground v.1.15,2013-03-15 19:07:00,
2013-03-15 14:12:00,59.6,42.9,29.73,NNW,335,1.0,6.0,54,0.00,,,0.00,Wunderground v.1.15,2013-03-15 19:12:00,
2013-03-15 14:18:00,59.6,42.9,29.73,NNW,327,1.0,6.0,54,0.00,,,0.00,Wunderground v.1.15,2013-03-15 19:18:00,
2013-03-15 14:24:00,59.5,42.8,29.73,NNW,345,2.0,6.0,54,0.00,,,0.00,Wunderground v.1.15,2013-03-15 19:24:00,
2013-03-15 14:29:00,59.4,42.7,29.72,NNE,14,2.0,6.0,54,0.00,,,0.00,Wunderground v.1.15,2013-03-15 19:29:00,
2013-03-15 14:35:00,59.3,43.1,29.72,North,355,1.0,6.0,55,0.00,,,0.00,Wunderground v.1.15,2013-03-15 19:35:00,
2013-03-15 14:42:00,59.3,42.6,29.72,North,3,1.0,6.0,54,0.00,,,0.00,Wunderground v.1.15,2013-03-15 19:42:00,
2013-03-15 14:47:00,59.2,43.0,29.71,North,6,0.0,5.0,55,0.00,,,0.00,weatherlink.com 1.10,2013-03-15 19:47:00,
2013-03-15 14:53:00,59.1,42.5,29.70,North,353,0.0,6.0,54,0.00,,,0.00,Wunderground v.1.15,2013-03-15 19:53:00,
2013-03-15 15:00:00,59.4,43.2,29.71,North,353,0.0,6.0,55,0.00,,,0.00,Wunderground v.1.15,2013-03-15 20:00:00,
2013-03-15 15:07:00,59.8,43.6,29.71,NNW,343,0.0,6.0,55,0.00,,,0.00,Wunderground v.1.15,2013-03-15 20:07:00,
2013-03-15 15:13:00,59.9,43.2,29.71,NNW,345,1.0,6.0,54,0.00,,,0.00,Wunderground v.1.15,2013-03-15 20:13:00,
2013-03-15 15:19:00,60.1,43.9,29.70,West,265,1.0,6.0,55,0.00,,,0.00,Wunderground v.1.15,2013-03-15 20:19:00,
2013-03-15 15:25:00,60.2,43.5,29.70,West,281,1.0,6.0,54,0.00,,,0.00,Wunderground v.1.15,2013-03-15 20:25:00,
2013-03-15 15:33:00,60.4,43.0,29.70,WNW,284,1.0,3.0,54,0.00,,,0.00,weatherlink.com 1.10,2013-03-15 20:33:00,
2013-03-15 15:42:00,60.6,43.9,29.70,WNW,284,1.0,6.0,54,0.00,,,0.00,Wunderground v.1.15,2013-03-15 20:42:00,
2013-03-15 15:48:00,60.7,44.0,29.70,NW,311,2.0,5.0,55,0.00,,,0.00,weatherlink.com 1.10,2013-03-15 20:48:00,
2013-03-15 15:54:00,60.7,44.4,29.71,North,349,2.0,6.0,55,0.00,,,0.00,Wunderground v.1.15,2013-03-15 20:54:00,
2013-03-15 16:02:00,60.8,44.0,29.70,NW,308,0.0,6.0,54,0.00,,,0.00,weatherlink.com 1.10,2013-03-15 21:02:00,
2013-03-15 16:09:00,60.8,43.1,29.71,NW,306,1.0,6.0,52,0.00,,,0.00,Wunderground v.1.15,2013-03-15 21:09:00,
2013-03-15 16:14:00,60.7,43.0,29.71,NNE,14,1.0,6.0,52,0.00,,,0.00,Wunderground v.1.15,2013-03-15 21:14:00,
2013-03-15 16:24:00,60.7,43.9,29.70,NNW,347,2.0,6.0,54,0.00,,,0.00,Wunderground v.1.15,2013-03-15 21:24:00,
2013-03-15 16:30:00,61.0,43.7,29.70,NNE,25,2.0,6.0,53,0.00,,,0.00,Wunderground v.1.15,2013-03-15 21:30:00,
2013-03-15 16:35:00,61.0,44.2,29.71,NNW,338,3.0,6.0,54,0.00,,,0.00,Wunderground v.1.15,2013-03-15 21:35:00,
2013-03-15 16:43:00,61.2,43.9,29.70,North,359,3.0,6.0,53,0.00,,,0.00,Wunderground v.1.15,2013-03-15 21:43:00,
2013-03-15 16:50:00,61.3,44.0,29.70,North,7,2.0,6.0,53,0.00,,,0.00,Wunderground v.1.15,2013-03-15 21:50:00,
2013-03-15 16:55:00,61.4,44.1,29.70,NNW,336,2.0,6.0,53,0.00,,,0.00,Wunderground v.1.15,2013-03-15 21:55:00,
2013-03-15 17:01:00,61.5,44.7,29.70,NW,306,3.0,6.0,54,0.00,,,0.00,Wunderground v.1.15,2013-03-15 22:01:00,
2013-03-15 17:07:00,61.4,44.6,29.70,NNE,29,3.0,6.0,54,0.00,,,0.00,Wunderground v.1.15,2013-03-15 22:07:00,
2013-03-15 17:12:00,61.3,45.0,29.70,North,11,3.0,6.0,55,0.00,,,0.00,Wunderground v.1.15,2013-03-15 22:12:00,
2013-03-15 17:18:00,61.1,45.0,29.70,NNW,335,4.0,9.0,55,0.00,,,0.00,weatherlink.com 1.10,2013-03-15 22:18:00,
2013-03-15 17:23:00,61.0,45.2,29.70,WNW,295,4.0,6.0,56,0.00,,,0.00,Wunderground v.1.15,2013-03-15 22:23:00,
2013-03-15 17:30:00,60.8,45.0,29.70,NNE,16,3.0,3.0,56,0.00,,,0.00,Wunderground v.1.15,2013-03-15 22:30:00,
2013-03-15 17:36:00,60.7,45.4,29.70,NW,320,2.0,6.0,57,0.00,,,0.00,Wunderground v.1.15,2013-03-15 22:36:00,
2013-03-15 17:42:00,60.8,45.5,29.70,North,3,1.0,6.0,57,0.00,,,0.00,Wunderground v.1.15,2013-03-15 22:42:00,
2013-03-15 17:48:00,60.8,45.0,29.70,North,11,3.0,6.0,57,0.00,,,0.00,weatherlink.com 1.10,2013-03-15 22:48:00,
2013-03-15 17:54:00,60.6,45.7,29.70,NW,316,2.0,6.0,58,0.00,,,0.00,Wunderground v.1.15,2013-03-15 22:54:00,
2013-03-15 18:00:00,60.4,45.5,29.70,NNW,334,2.0,2.0,58,0.00,,,0.00,Wunderground v.1.15,2013-03-15 23:00:00,
2013-03-15 18:07:00,59.8,44.5,29.70,NNW,342,2.0,6.0,57,0.00,,,0.00,Wunderground v.1.15,2013-03-15 23:07:00,
2013-03-15 18:13:00,59.3,44.5,29.70,NNW,342,3.0,6.0,58,0.00,,,0.00,Wunderground v.1.15,2013-03-15 23:13:00,
2013-03-15 18:19:00,58.8,44.0,29.70,NW,307,3.0,6.0,58,0.00,,,0.00,Wunderground v.1.15,2013-03-15 23:19:00,
2013-03-15 18:25:00,58.2,43.9,29.70,NNE,16,2.0,6.0,59,0.00,,,0.00,Wunderground v.1.15,2013-03-15 23:25:00,
2013-03-15 18:30:00,57.7,43.9,29.70,NNW,335,2.0,6.0,60,0.00,,,0.00,Wunderground v.1.15,2013-03-15 23:30:00,
2013-03-15 18:35:00,57.0,44.1,29.70,North,1,4.0,6.0,62,0.00,,,0.00,Wunderground v.1.15,2013-03-15 23:35:00,
2013-03-15 18:41:00,55.9,43.5,29.70,North,1,5.0,6.0,63,0.00,,,0.00,Wunderground v.1.15,2013-03-15 23:41:00,
2013-03-15 18:47:00,55.2,42.8,29.70,North,7,4.0,6.0,63,0.00,,,0.00,Wunderground v.1.15,2013-03-15 23:47:00,
2013-03-15 18:53:00,54.6,42.0,29.71,NNE,15,3.0,9.0,63,0.00,,,0.00,weatherlink.com 1.10,2013-03-15 23:53:00,
2013-03-15 18:58:00,54.1,41.4,29.71,North,11,5.0,7.0,62,0.00,,,0.00,Wunderground v.1.15,2013-03-15 23:58:00,
2013-03-15 19:04:00,53.6,41.3,29.70,North,352,4.0,7.0,63,0.00,,,0.00,Wunderground v.1.15,2013-03-16 00:04:00,
2013-03-15 19:09:00,53.2,41.3,29.70,North,360,4.0,7.0,64,0.00,,,0.00,Wunderground v.1.15,2013-03-16 00:09:00,
2013-03-15 19:15:00,52.8,41.0,29.71,North,358,3.0,6.0,64,0.00,,,0.00,Wunderground v.1.15,2013-03-16 00:15:00,
2013-03-15 19:22:00,52.2,40.8,29.71,North,10,2.0,6.0,65,0.00,,,0.00,Wunderground v.1.15,2013-03-16 00:22:00,
2013-03-15 19:27:00,51.7,40.7,29.71,North,349,3.0,8.0,66,0.00,,,0.00,Wunderground v.1.15,2013-03-16 00:27:00,
2013-03-15 19:33:00,51.3,41.1,29.71,NNW,333,3.0,6.0,68,0.00,,,0.00,Wunderground v.1.15,2013-03-16 00:33:00,
2013-03-15 19:38:00,50.8,41.0,29.72,NNW,333,2.0,6.0,69,0.00,,,0.00,Wunderground v.1.15,2013-03-16 00:38:00,
2013-03-15 19:43:00,50.4,41.0,29.71,NW,320,2.0,6.0,70,0.00,,,0.00,Wunderground v.1.15,2013-03-16 00:43:00,
2013-03-15 19:49:00,50.0,41.3,29.71,North,352,2.0,6.0,72,0.00,,,0.00,Wunderground v.1.15,2013-03-16 00:49:00,
2013-03-15 19:56:00,49.6,41.3,29.72,NNW,339,1.0,6.0,73,0.00,,,0.00,Wunderground v.1.15,2013-03-16 00:56:00,
2013-03-15 20:01:00,49.2,41.3,29.72,NNW,341,1.0,6.0,74,0.00,,,0.00,Wunderground v.1.15,2013-03-16 01:01:00,
2013-03-15 20:07:00,48.9,41.0,29.72,NNW,337,1.0,6.0,74,0.00,,,0.00,Wunderground v.1.15,2013-03-16 01:07:00,
2013-03-15 20:12:00,48.5,40.9,29.73,NNW,343,1.0,6.0,75,0.00,,,0.00,Wunderground v.1.15,2013-03-16 01:12:00,
2013-03-15 20:18:00,48.0,40.5,29.74,North,351,3.0,8.0,75,0.00,,,0.00,Wunderground v.1.15,2013-03-16 01:18:00,
2013-03-15 20:25:00,47.5,40.0,29.75,North,8,3.0,6.0,75,0.00,,,0.00,Wunderground v.1.15,2013-03-16 01:25:00,
2013-03-15 20:30:00,47.1,39.9,29.75,North,3,3.0,6.0,76,0.00,,,0.00,Wunderground v.1.15,2013-03-16 01:30:00,
2013-03-15 20:35:00,46.7,39.5,29.75,NNE,27,4.0,9.0,76,0.00,,,0.00,Wunderground v.1.15,2013-03-16 01:35:00,
2013-03-15 20:41:00,46.2,39.4,29.75,NNW,347,5.0,6.0,77,0.00,,,0.00,Wunderground v.1.15,2013-03-16 01:41:00,
2013-03-15 20:48:00,45.6,38.8,29.75,NNE,12,4.0,6.0,77,0.00,,,0.00,Wunderground v.1.15,2013-03-16 01:48:00,
2013-03-15 20:53:00,45.3,38.8,29.75,North,3,4.0,6.0,78,0.00,,,0.00,Wunderground v.1.15,2013-03-16 01:53:00,
2013-03-15 20:58:00,45.1,38.6,29.76,North,2,3.0,7.0,78,0.00,,,0.00,Wunderground v.1.15,2013-03-16 01:58:00,
2013-03-15 21:04:00,45.0,38.6,29.77,NNW,345,4.0,6.0,78,0.00,,,0.00,Wunderground v.1.15,2013-03-16 02:04:00,
2013-03-15 21:10:00,44.8,38.0,29.77,NNE,13,5.0,10.0,78,0.00,,,0.00,weatherlink.com 1.10,2013-03-16 02:10:00,
2013-03-15 21:15:00,44.7,38.3,29.77,NNE,12,4.0,7.0,78,0.00,,,0.00,Wunderground v.1.15,2013-03-16 02:15:00,
2013-03-15 21:21:00,44.3,38.0,29.77,North,2,5.0,10.0,78,0.00,,,0.00,weatherlink.com 1.10,2013-03-16 02:21:00,
2013-03-15 21:27:00,44.2,38.1,29.77,North,5,5.0,9.0,79,0.00,,,0.00,Wunderground v.1.15,2013-03-16 02:27:00,
2013-03-15 21:33:00,44.0,38.2,29.77,North,358,5.0,7.0,80,0.00,,,0.00,Wunderground v.1.15,2013-03-16 02:33:00,
2013-03-15 21:40:00,43.8,38.0,29.77,North,9,5.0,5.0,80,0.00,,,0.00,Wunderground v.1.15,2013-03-16 02:40:00,
2013-03-15 21:46:00,43.5,38.1,29.77,North,8,4.0,6.0,81,0.00,,,0.00,Wunderground v.1.15,2013-03-16 02:46:00,
2013-03-15 21:52:00,43.4,38.0,29.78,North,7,4.0,6.0,81,0.00,,,0.00,Wunderground v.1.15,2013-03-16 02:52:00,
2013-03-15 21:59:00,43.3,37.9,29.78,NNE,14,4.0,6.0,81,0.00,,,0.00,Wunderground v.1.15,2013-03-16 02:59:00,
2013-03-15 22:04:00,43.2,37.8,29.79,NNE,20,3.0,6.0,81,0.00,,,0.00,Wunderground v.1.15,2013-03-16 03:04:00,
2013-03-15 22:11:00,43.1,37.7,29.80,North,4,3.0,6.0,81,0.00,,,0.00,Wunderground v.1.15,2013-03-16 03:11:00,
2013-03-15 22:17:00,42.9,37.2,29.79,NNW,333,4.0,10.0,80,0.00,,,0.00,Wunderground v.1.15,2013-03-16 03:17:00,
2013-03-15 22:23:00,42.7,37.3,29.79,North,7,4.0,6.0,81,0.00,,,0.00,Wunderground v.1.15,2013-03-16 03:23:00,
2013-03-15 22:29:00,42.4,37.0,29.79,North,8,3.0,6.0,81,0.00,,,0.00,Wunderground v.1.15,2013-03-16 03:29:00,
2013-03-15 22:34:00,42.2,37.1,29.79,North,8,3.0,6.0,82,0.00,,,0.00,Wunderground v.1.15,2013-03-16 03:34:00,
2013-03-15 22:39:00,42.1,37.0,29.80,NNW,342,2.0,6.0,82,0.00,,,0.00,Wunderground v.1.15,2013-03-16 03:39:00,
2013-03-15 22:44:00,41.9,36.8,29.81,NNW,342,1.0,6.0,82,0.00,,,0.00,Wunderground v.1.15,2013-03-16 03:44:00,
2013-03-15 22:49:00,41.8,37.0,29.81,NNW,345,1.0,6.0,83,0.00,,,0.00,Wunderground v.1.15,2013-03-16 03:49:00,
2013-03-15 22:55:00,41.8,37.3,29.81,North,356,2.0,8.0,84,0.00,,,0.00,Wunderground v.1.15,2013-03-16 03:55:00,
2013-03-15 23:00:00,42.0,37.5,29.82,NNE,26,4.0,6.0,84,0.00,,,0.00,Wunderground v.1.15,2013-03-16 04:00:00,
2013-03-15 23:01:00,41.9,37.4,29.81,NNW,335,4.0,6.0,84,0.00,,,0.00,Wunderground v.1.15,2013-03-16 04:01:00,
2013-03-15 23:04:00,41.9,37.4,29.81,NNW,340,4.0,6.0,84,0.00,,,0.00,Wunderground v.1.15,2013-03-16 04:04:00,
2013-03-15 23:05:00,41.8,37.3,29.82,NNE,29,5.0,6.0,84,0.00,,,0.00,Wunderground v.1.15,2013-03-16 04:05:00,
2013-03-15 23:11:00,41.6,37.1,29.82,North,355,4.0,6.0,84,0.00,,,0.00,Wunderground v.1.15,2013-03-16 04:11:00,
2013-03-15 23:19:00,41.4,37.2,29.83,North,351,5.0,10.0,85,0.00,,,0.00,Wunderground v.1.15,2013-03-16 04:19:00,
2013-03-15 23:24:00,41.2,37.0,29.83,NNW,333,5.0,7.0,85,0.00,,,0.00,Wunderground v.1.15,2013-03-16 04:24:00,
2013-03-15 23:32:00,40.9,36.7,29.82,North,354,4.0,6.0,85,0.00,,,0.00,Wunderground v.1.15,2013-03-16 04:32:00,
2013-03-15 23:41:00,40.8,36.9,29.82,North,350,5.0,6.0,86,0.00,,,0.00,Wunderground v.1.15,2013-03-16 04:41:00,
2013-03-15 23:47:00,40.9,37.0,29.83,NNE,21,4.0,6.0,86,0.00,,,0.00,Wunderground v.1.15,2013-03-16 04:47:00,
2013-03-15 23:53:00,40.9,37.0,29.83,NW,320,3.0,6.0,86,0.00,,,0.00,Wunderground v.1.15,2013-03-16 04:53:00,
2013-03-15 23:59:00,40.9,37.0,29.83,NNW,343,3.0,6.0,86,0.00,,,0.00,Wunderground v.1.15,2013-03-16 04:59:00,